Time;durP1;ratioP1;P1;durP2;ratioP2;P2;SDS_P1;SDS_P2;PMS_P1;PMS_P2;Temp;Humidity;BMP_temperature;BMP_pressure;BME280_temperature;BME280_humidity;BME280_pressure;Samples;Min_cycle;Max_cycle;Signal;HPM_P1;HPM_P2
2023/01/25 00:01:52;;;;;;;55.60;28.27;;;;;;;0.87;100.00;98269.78;5001670;28;20261;-62
2023/01/25 00:04:19;;;;;;;55.40;29.20;;;;;;;0.94;100.00;98270.09;5014448;28;20734;-62
2023/01/25 00:06:44;;;;;;;54.80;27.73;;;;;;;0.81;100.00;98265.13;5015145;28;20527;-62
2023/01/25 00:09:10;;;;;;;54.47;29.23;;;;;;;0.84;100.00;98254.53;5015121;28;20209;-62
2023/01/25 00:11:37;;;;;;;50.17;28.87;;;;;;;0.80;100.00;98254.00;5015202;28;20199;-62
2023/01/25 00:14:03;;;;;;;46.13;27.97;;;;;;;0.71;100.00;98256.53;5014640;28;20294;-62
2023/01/25 00:16:36;;;;;;;56.97;28.27;;;;;;;0.75;100.00;98252.75;5014447;28;20180;-62
2023/01/25 00:19:01;;;;;;;52.00;27.77;;;;;;;0.75;100.00;98245.84;5014570;28;20203;-64
2023/01/25 00:21:27;;;;;;;59.40;30.83;;;;;;;0.82;100.00;98248.72;5015457;28;20214;-63
2023/01/25 00:23:53;;;;;;;54.20;28.77;;;;;;;0.82;100.00;98253.88;5014602;28;20218;-62
2023/01/25 00:26:19;;;;;;;61.53;27.77;;;;;;;0.66;100.00;98238.06;5014728;28;20286;-62
2023/01/25 00:28:51;;;;;;;56.17;28.93;;;;;;;0.69;100.00;98241.19;5014967;28;20187;-63
2023/01/25 00:31:40;;;;;;;51.97;28.33;;;;;;;0.73;100.00;98259.78;5014806;28;20270;-62
2023/01/25 00:34:26;;;;;;;49.93;28.13;;;;;;;0.76;100.00;98256.97;4998884;28;20203;-62
2023/01/25 00:36:56;;;;;;;51.07;27.03;;;;;;;0.79;100.00;98256.69;5014234;28;20195;-62
2023/01/25 00:39:24;;;;;;;58.17;29.63;;;;;;;0.76;100.00;98252.63;5014902;28;20214;-63
2023/01/25 00:41:49;;;;;;;59.93;29.17;;;;;;;0.73;100.00;98252.06;5014432;28;20175;-62
2023/01/25 00:44:14;;;;;;;56.83;30.10;;;;;;;0.76;100.00;98255.22;5014702;28;20721;-62
2023/01/25 00:46:40;;;;;;;58.13;29.93;;;;;;;0.77;100.00;98249.13;5014467;28;20184;-61
2023/01/25 00:49:06;;;;;;;57.57;29.47;;;;;;;0.83;100.00;98240.84;4996593;28;20187;-64
2023/01/25 00:51:31;;;;;;;55.97;30.63;;;;;;;0.78;100.00;98237.81;5013793;28;20203;-64
2023/01/25 00:53:57;;;;;;;58.27;29.70;;;;;;;0.77;100.00;98236.22;5014372;28;20570;-63
2023/01/25 00:56:22;;;;;;;59.67;30.50;;;;;;;0.84;100.00;98228.75;5014502;28;20175;-64
2023/01/25 00:58:48;;;;;;;55.50;29.43;;;;;;;0.82;100.00;98230.66;5014660;28;20210;-63
2023/01/25 01:01:13;;;;;;;55.80;29.23;;;;;;;0.86;100.00;98231.19;5011597;28;20234;-64
2023/01/25 01:03:39;;;;;;;54.53;29.10;;;;;;;0.96;100.00;98232.03;5013379;28;20230;-64
2023/01/25 01:06:10;;;;;;;52.30;28.33;;;;;;;1.03;100.00;98233.16;4996379;28;20180;-64
2023/01/25 01:08:40;;;;;;;54.03;28.70;;;;;;;0.98;100.00;98238.72;5014032;28;20183;-64
2023/01/25 01:11:08;;;;;;;53.93;28.20;;;;;;;0.92;100.00;98230.69;5013847;28;20262;-63
2023/01/25 01:13:33;;;;;;;58.37;29.33;;;;;;;1.01;100.00;98229.88;5013748;28;20718;-63
2023/01/25 01:16:03;;;;;;;54.40;28.13;;;;;;;1.09;100.00;98232.66;5013829;28;20207;-64
2023/01/25 01:18:34;;;;;;;60.53;29.50;;;;;;;1.12;100.00;98224.63;5013525;28;20179;-63
2023/01/25 01:20:59;;;;;;;50.43;28.20;;;;;;;0.95;100.00;98226.06;5013561;28;20222;-62
2023/01/25 01:23:27;;;;;;;52.30;27.40;;;;;;;0.87;100.00;98235.41;5013890;28;20231;-64
2023/01/25 01:25:53;;;;;;;49.63;27.30;;;;;;;0.87;100.00;98235.41;5013371;28;20179;-63
2023/01/25 01:28:18;;;;;;;47.83;28.17;;;;;;;0.87;100.00;98228.50;5013923;28;20190;-63
2023/01/25 01:30:43;;;;;;;50.53;27.97;;;;;;;0.77;100.00;98231.06;5013669;28;20186;-63
2023/01/25 01:33:09;;;;;;;48.63;27.43;;;;;;;0.89;100.00;98231.78;5012981;28;20223;-63
2023/01/25 01:35:45;;;;;;;50.70;29.00;;;;;;;0.94;100.00;98236.53;5013452;28;20187;-63
2023/01/25 01:38:11;;;;;;;54.70;27.43;;;;;;;0.84;100.00;98231.31;5013759;28;20174;-63
2023/01/25 01:40:36;;;;;;;49.23;28.37;;;;;;;0.83;100.00;98227.94;4995810;28;20221;-63
2023/01/25 01:43:05;;;;;;;54.90;27.43;;;;;;;0.75;100.00;98221.78;5013334;28;20570;-65
2023/01/25 01:46:01;;;;;;;47.87;27.47;;;;;;;0.92;100.00;98228.09;5013844;28;20719;-63
2023/01/25 01:49:11;;;;;;;49.30;26.83;;;;;;;1.07;100.00;98226.78;4997814;28;20253;-64
2023/01/25 01:51:42;;;;;;;48.53;27.27;;;;;;;0.98;100.00;98230.97;5007339;28;20211;-63
2023/01/25 01:54:17;;;;;;;54.53;27.00;;;;;;;0.92;100.00;98231.50;5012908;28;20209;-63
2023/01/25 01:57:04;;;;;;;41.57;25.33;;;;;;;0.94;100.00;98236.53;5013023;28;20194;-63
2023/01/25 01:59:35;;;;;;;48.70;26.27;;;;;;;0.91;100.00;98235.03;5013242;28;20191;-63
2023/01/25 02:02:01;;;;;;;45.60;26.57;;;;;;;0.86;100.00;98238.94;5010287;28;20239;-58
2023/01/25 02:04:27;;;;;;;47.87;27.20;;;;;;;0.90;100.00;98235.16;5011757;28;20207;-60
2023/01/25 02:07:07;;;;;;;47.83;26.77;;;;;;;0.87;100.00;98231.06;5012742;28;20179;-62
2023/01/25 02:09:34;;;;;;;48.73;27.03;;;;;;;0.94;100.00;98232.19;5013149;28;20179;-62
2023/01/25 02:12:00;;;;;;;42.37;24.80;;;;;;;0.92;100.00;98222.94;5012813;28;20295;-61
2023/01/25 02:14:28;;;;;;;49.23;27.20;;;;;;;0.96;100.00;98219.13;5013161;28;20250;-63
2023/01/25 02:16:54;;;;;;;48.97;26.07;;;;;;;0.80;100.00;98219.63;5013307;28;20472;-63
2023/01/25 02:19:53;;;;;;;46.43;26.60;;;;;;;0.81;100.00;98222.09;5012596;28;20188;-63
2023/01/25 02:22:22;;;;;;;46.67;25.90;;;;;;;0.78;100.00;98224.13;4998652;28;20287;-63
2023/01/25 02:25:18;;;;;;;44.10;23.77;;;;;;;0.88;100.00;98222.41;5012815;28;20179;-62
2023/01/25 02:27:52;;;;;;;46.73;25.50;;;;;;;0.92;100.00;98223.75;5007758;28;20573;-62
2023/01/25 02:30:18;;;;;;;43.73;24.97;;;;;;;0.80;100.00;98219.63;5012850;28;20632;-62
2023/01/25 02:32:43;;;;;;;50.63;26.87;;;;;;;0.85;100.00;98209.72;5012341;28;20296;-62
2023/01/25 02:35:18;;;;;;;46.53;25.67;;;;;;;0.86;100.00;98205.41;5012863;28;20632;-62
2023/01/25 02:37:44;;;;;;;44.13;24.67;;;;;;;0.87;100.00;98207.03;5012403;28;20581;-62
2023/01/25 02:40:10;;;;;;;44.77;24.47;;;;;;;0.82;100.00;98208.25;5012847;28;20180;-62
2023/01/25 02:42:36;;;;;;;40.93;24.63;;;;;;;0.93;100.00;98209.09;5012533;28;20238;-62
2023/01/25 02:45:02;;;;;;;42.00;24.50;;;;;;;0.87;100.00;98207.03;5012482;28;20593;-62
2023/01/25 02:47:27;;;;;;;42.33;24.80;;;;;;;0.77;100.00;98209.59;5012925;28;20203;-62
2023/01/25 02:49:53;;;;;;;40.33;24.73;;;;;;;0.88;100.00;98200.94;5011559;28;20659;-62
2023/01/25 02:52:18;;;;;;;45.67;25.67;;;;;;;0.81;100.00;98210.94;4994946;28;20254;-61
2023/01/25 02:54:52;;;;;;;44.47;24.93;;;;;;;0.79;100.00;98202.50;5012451;28;20203;-62
2023/01/25 02:57:17;;;;;;;42.03;23.60;;;;;;;0.69;100.00;98202.47;5012256;28;20187;-63
2023/01/25 02:59:43;;;;;;;38.37;24.03;;;;;;;0.82;100.00;98202.28;5011973;28;20274;-64
2023/01/25 03:02:08;;;;;;;45.37;23.47;;;;;;;0.72;100.00;98206.59;5010089;28;20235;-62
2023/01/25 03:04:34;;;;;;;43.00;24.73;;;;;;;0.75;100.00;98199.38;5012759;28;20218;-62
2023/01/25 03:06:59;;;;;;;41.60;24.67;;;;;;;0.73;100.00;98195.28;5012619;28;20678;-63
2023/01/25 03:09:24;;;;;;;46.30;25.37;;;;;;;0.77;100.00;98187.19;5011870;28;20191;-64
2023/01/25 03:11:50;;;;;;;40.63;25.00;;;;;;;0.77;100.00;98187.19;5012786;28;20199;-63
2023/01/25 03:14:15;;;;;;;44.90;24.60;;;;;;;0.83;100.00;98186.66;5014508;28;20250;-64
2023/01/25 03:16:41;;;;;;;45.40;24.90;;;;;;;0.81;100.00;98175.66;5016058;28;20225;-63
2023/01/25 03:19:06;;;;;;;45.90;24.30;;;;;;;0.83;100.00;98181.50;5015996;28;20172;-63
2023/01/25 03:21:31;;;;;;;42.73;22.43;;;;;;;0.75;100.00;98178.75;5016224;28;20175;-63
2023/01/25 03:24:00;;;;;;;44.40;24.73;;;;;;;0.81;100.00;98167.91;5015959;28;20630;-64
2023/01/25 03:26:26;;;;;;;50.77;25.37;;;;;;;0.79;100.00;98168.97;5016033;28;20266;-63
2023/01/25 03:28:52;;;;;;;42.07;23.53;;;;;;;0.84;100.00;98162.47;5016129;28;20164;-64
2023/01/25 03:31:18;;;;;;;38.87;23.23;;;;;;;0.94;100.00;98165.09;5015737;28;20198;-63
2023/01/25 03:33:43;;;;;;;37.10;21.27;;;;;;;0.74;100.00;98166.78;5016167;28;20199;-62
2023/01/25 03:36:09;;;;;;;39.87;22.50;;;;;;;0.76;100.00;98158.94;5015577;28;20187;-61
2023/01/25 03:38:35;;;;;;;39.63;22.20;;;;;;;0.82;100.00;98160.97;5015745;28;20174;-62
2023/01/25 03:41:02;;;;;;;40.60;23.77;;;;;;;1.00;100.00;98159.41;5015498;28;20254;-62
2023/01/25 03:43:28;;;;;;;38.27;22.30;;;;;;;0.94;100.00;98161.69;5015580;28;20231;-62
2023/01/25 03:45:56;;;;;;;39.77;23.60;;;;;;;0.95;100.00;98158.97;5014857;28;20215;-62
2023/01/25 03:48:22;;;;;;;38.77;22.43;;;;;;;0.83;100.00;98162.63;5015404;28;20670;-62
2023/01/25 03:50:54;;;;;;;38.77;22.47;;;;;;;1.07;100.00;98159.66;5015820;28;20179;-63
2023/01/25 03:53:27;;;;;;;40.67;22.73;;;;;;;0.90;100.00;98161.13;5015268;28;20210;-64
2023/01/25 03:56:02;;;;;;;37.83;21.50;;;;;;;0.90;100.00;98155.97;5015409;28;20187;-62
2023/01/25 03:58:29;;;;;;;34.43;20.40;;;;;;;0.81;100.00;98154.19;5015108;28;20186;-63
2023/01/25 04:00:57;;;;;;;34.93;19.87;;;;;;;0.76;100.00;98158.94;5013672;28;20183;-64
2023/01/25 04:03:24;;;;;;;31.83;20.67;;;;;;;0.63;100.00;98148.81;5005603;28;20581;-64
2023/01/25 04:05:50;;;;;;;31.57;19.47;;;;;;;0.83;100.00;98145.38;5015198;28;20175;-63
2023/01/25 04:08:16;;;;;;;35.67;19.67;;;;;;;0.91;100.00;98155.03;5015341;28;20183;-62
2023/01/25 04:10:42;;;;;;;32.10;19.57;;;;;;;0.84;100.00;98152.16;5015220;28;20187;-62
2023/01/25 04:13:08;;;;;;;34.40;20.07;;;;;;;0.88;100.00;98154.47;5015180;28;20615;-61
2023/01/25 04:15:33;;;;;;;30.73;18.97;;;;;;;0.78;100.00;98157.03;5014352;28;20183;-62
2023/01/25 04:17:59;;;;;;;28.83;17.47;;;;;;;0.76;100.00;98156.34;5015246;28;20184;-62
2023/01/25 04:20:24;;;;;;;29.63;18.67;;;;;;;0.73;100.00;98148.84;5015165;28;20538;-62
2023/01/25 04:22:49;;;;;;;30.83;19.37;;;;;;;0.65;100.00;98146.94;5014831;28;20286;-62
2023/01/25 04:25:15;;;;;;;26.57;18.27;;;;;;;0.73;100.00;98154.00;5014018;28;20232;-64
2023/01/25 04:27:40;;;;;;;32.37;19.10;;;;;;;0.75;100.00;98157.28;5014530;28;20624;-64
2023/01/25 04:30:07;;;;;;;28.40;17.50;;;;;;;0.65;100.00;98159.84;5015755;28;20175;-64
2023/01/25 04:32:34;;;;;;;26.77;17.80;;;;;;;0.63;100.00;98153.16;5015298;28;20226;-62
2023/01/25 04:35:00;;;;;;;26.70;17.13;;;;;;;0.61;100.00;98143.00;5016720;28;20172;-60
2023/01/25 04:37:25;;;;;;;29.23;16.20;;;;;;;0.64;100.00;98147.06;5014367;28;20179;-62
2023/01/25 04:39:50;;;;;;;30.30;16.37;;;;;;;0.80;100.00;98137.88;5014163;28;20179;-62
2023/01/25 04:42:16;;;;;;;30.37;17.93;;;;;;;0.77;100.00;98145.09;5014489;28;20198;-62
2023/01/25 04:44:41;;;;;;;27.77;17.47;;;;;;;0.72;100.00;98142.09;5014479;28;20210;-62
2023/01/25 04:47:06;;;;;;;26.73;16.87;;;;;;;0.82;100.00;98145.50;5014501;28;20172;-63
2023/01/25 04:49:32;;;;;;;29.97;17.53;;;;;;;0.75;100.00;98140.03;5014636;28;20195;-63
2023/01/25 04:51:57;;;;;;;28.03;17.67;;;;;;;0.77;100.00;98140.75;5014648;28;20210;-64
2023/01/25 04:54:23;;;;;;;25.60;17.30;;;;;;;0.80;100.00;98140.47;5014333;28;20229;-62
2023/01/25 04:56:48;;;;;;;26.70;16.43;;;;;;;0.68;100.00;98132.94;5013961;28;20234;-64
2023/01/25 04:59:14;;;;;;;28.90;18.90;;;;;;;0.77;100.00;98142.50;5014041;28;20187;-63
2023/01/25 05:01:39;;;;;;;26.37;16.50;;;;;;;0.75;100.00;98134.88;5010477;28;20231;-64
2023/01/25 05:04:05;;;;;;;24.47;16.93;;;;;;;0.75;100.00;98139.22;5013621;28;20631;-62
2023/01/25 05:06:30;;;;;;;26.60;17.23;;;;;;;0.87;100.00;98137.34;4995997;28;20206;-63
2023/01/25 05:08:56;;;;;;;26.70;17.43;;;;;;;0.92;100.00;98141.16;5013933;28;20187;-64
2023/01/25 05:11:21;;;;;;;27.63;16.77;;;;;;;0.76;100.00;98135.69;5013664;28;20190;-64
2023/01/25 05:13:47;;;;;;;28.27;17.90;;;;;;;0.79;100.00;98135.44;5013904;28;20257;-63
2023/01/25 05:16:12;;;;;;;26.07;15.93;;;;;;;0.79;100.00;98138.81;5013702;28;20232;-63
2023/01/25 05:18:37;;;;;;;24.47;16.43;;;;;;;0.73;100.00;98138.53;5014270;28;20628;-63
2023/01/25 05:21:03;;;;;;;27.63;17.30;;;;;;;0.70;100.00;98133.66;5013778;28;20175;-62
2023/01/25 05:23:28;;;;;;;25.93;15.67;;;;;;;0.79;100.00;98127.69;5013556;28;20213;-62
2023/01/25 05:28:38;;;;;;;24.10;16.37;;;;;;;0.66;100.00;98122.78;5013646;28;20600;-62
2023/01/25 05:31:04;;;;;;;24.40;16.43;;;;;;;0.68;100.00;98122.63;5013663;28;20179;-62
2023/01/25 05:33:29;;;;;;;29.67;17.40;;;;;;;0.75;100.00;98124.56;5011909;28;20215;-62
2023/01/25 05:35:57;;;;;;;25.60;16.37;;;;;;;0.66;100.00;98127.94;5013635;28;20175;-62
2023/01/25 05:38:23;;;;;;;29.30;17.83;;;;;;;0.77;100.00;98122.69;5014123;28;20183;-63
2023/01/25 05:40:48;;;;;;;23.97;15.73;;;;;;;0.78;100.00;98123.50;5013572;28;20253;-62
2023/01/25 05:43:13;;;;;;;27.60;17.70;;;;;;;0.80;100.00;98121.59;5012424;28;20207;-63
2023/01/25 05:45:43;;;;;;;27.20;15.97;;;;;;;0.90;100.00;98116.44;5013605;28;20214;-63
2023/01/25 05:48:08;;;;;;;23.80;15.17;;;;;;;0.79;100.00;98125.91;5013399;28;20191;-63
2023/01/25 05:50:34;;;;;;;25.40;17.27;;;;;;;0.68;100.00;98127.78;5013511;28;20269;-64
2023/01/25 05:52:59;;;;;;;24.50;15.80;;;;;;;0.70;100.00;98121.56;5012959;28;20215;-63
2023/01/25 05:55:25;;;;;;;28.30;16.93;;;;;;;0.80;100.00;98124.97;5013443;28;20186;-61
2023/01/25 05:57:54;;;;;;;22.83;15.80;;;;;;;0.69;100.00;98119.09;5013645;28;20194;-62
2023/01/25 06:00:20;;;;;;;25.80;16.80;;;;;;;0.67;100.00;98124.38;5013691;28;20194;-61
2023/01/25 06:02:45;;;;;;;24.47;15.97;;;;;;;0.68;100.00;98122.63;5010074;28;20235;-62
2023/01/25 06:05:11;;;;;;;25.97;17.13;;;;;;;0.68;100.00;98114.88;5012541;28;20198;-63
2023/01/25 06:07:36;;;;;;;24.80;16.60;;;;;;;0.69;100.00;98117.34;5011981;28;20174;-64
2023/01/25 06:10:03;;;;;;;23.60;16.47;;;;;;;0.64;100.00;98114.34;5013183;28;20178;-63
2023/01/25 06:12:29;;;;;;;25.93;17.00;;;;;;;0.64;100.00;98116.09;5013617;28;20203;-64
2023/01/25 06:14:55;;;;;;;25.10;17.40;;;;;;;0.68;100.00;98120.06;5014417;28;20209;-63
2023/01/25 06:17:21;;;;;;;23.80;15.70;;;;;;;0.74;100.00;98115.19;5013369;28;20185;-63
2023/01/25 06:19:46;;;;;;;29.90;17.70;;;;;;;0.74;100.00;98120.34;5012717;28;20266;-63
2023/01/25 06:22:12;;;;;;;25.00;15.60;;;;;;;0.64;100.00;98113.53;5012963;28;20180;-62
2023/01/25 06:24:37;;;;;;;25.27;16.97;;;;;;;0.69;100.00;98121.69;5012964;28;20218;-62
2023/01/25 06:27:03;;;;;;;25.17;17.23;;;;;;;0.64;100.00;98109.19;5012684;28;20699;-61
2023/01/25 06:29:28;;;;;;;23.77;16.67;;;;;;;0.68;100.00;98120.88;5012727;28;20180;-61
2023/01/25 06:31:54;;;;;;;26.17;16.27;;;;;;;0.73;100.00;98117.88;5012566;28;20209;-63
2023/01/25 06:34:20;;;;;;;27.03;16.63;;;;;;;0.74;100.00;98120.34;5012614;28;20211;-63
2023/01/25 06:36:47;;;;;;;26.63;16.77;;;;;;;0.72;100.00;98105.97;5013135;28;20183;-62
2023/01/25 06:39:12;;;;;;;24.73;16.87;;;;;;;0.78;100.00;98105.44;5013127;28;20540;-62
2023/01/25 06:41:38;;;;;;;27.07;17.70;;;;;;;0.91;100.00;98097.41;5012851;28;20184;-62
2023/01/25 06:44:03;;;;;;;23.90;17.00;;;;;;;0.92;100.00;98099.88;5012500;28;20199;-62
2023/01/25 06:46:31;;;;;;;25.97;17.90;;;;;;;0.86;100.00;98107.34;5012819;28;20190;-62
2023/01/25 06:48:56;;;;;;;25.03;16.80;;;;;;;0.80;100.00;98100.94;5014452;28;20194;-62
2023/01/25 06:51:22;;;;;;;26.30;17.10;;;;;;;0.65;100.00;98104.84;5016550;28;20701;-62
2023/01/25 06:53:47;;;;;;;24.90;16.13;;;;;;;0.65;100.00;98100.50;5016373;28;20675;-62
2023/01/25 06:56:19;;;;;;;26.43;16.43;;;;;;;0.84;100.00;98099.72;5016585;28;20245;-62
2023/01/25 06:58:45;;;;;;;28.70;17.63;;;;;;;0.83;100.00;98090.38;5016421;28;20187;-62
2023/01/25 07:01:25;;;;;;;23.33;17.87;;;;;;;1.00;100.00;98078.56;5012826;28;20239;-61
2023/01/25 07:03:54;;;;;;;24.20;16.73;;;;;;;0.93;100.00;98096.34;4999213;28;20202;-62
2023/01/25 07:06:20;;;;;;;22.43;16.47;;;;;;;0.88;100.00;98085.63;5016048;28;20225;-63
2023/01/25 07:08:46;;;;;;;23.63;15.60;;;;;;;0.92;100.00;98083.56;5016223;28;20188;-62
2023/01/25 07:11:12;;;;;;;22.83;15.27;;;;;;;0.80;100.00;98082.88;5016021;28;20190;-62
2023/01/25 07:13:39;;;;;;;24.83;15.83;;;;;;;0.71;100.00;98076.75;5017334;28;20676;-62
2023/01/25 07:16:07;;;;;;;22.07;14.70;;;;;;;0.93;100.00;98080.06;5019328;28;20195;-63
2023/01/25 07:18:36;;;;;;;24.90;16.37;;;;;;;0.97;100.00;98083.97;5017251;28;20175;-62
2023/01/25 07:21:04;;;;;;;22.73;15.70;;;;;;;0.96;100.00;98077.19;5009915;28;21481;-62
2023/01/25 07:23:31;;;;;;;23.23;15.80;;;;;;;1.07;100.00;98074.47;5008227;28;20207;-65
2023/01/25 07:25:57;;;;;;;22.83;15.67;;;;;;;1.11;100.00;98079.25;5015291;28;20202;-62
2023/01/25 07:28:22;;;;;;;20.37;14.53;;;;;;;1.16;100.00;98081.44;5015333;28;20639;-59
2023/01/25 07:30:48;;;;;;;20.33;15.27;;;;;;;1.06;100.00;98075.44;5015308;28;20679;-63
2023/01/25 07:33:14;;;;;;;22.53;16.13;;;;;;;1.08;100.00;98078.69;5015021;28;20210;-60
2023/01/25 07:35:40;;;;;;;19.50;14.30;;;;;;;1.03;100.00;98081.69;4998330;28;20266;-64
2023/01/25 07:38:06;;;;;;;20.43;15.30;;;;;;;0.95;100.00;98075.59;5014704;28;20262;-59
2023/01/25 07:40:31;;;;;;;18.40;14.87;;;;;;;0.88;100.00;98069.31;5004354;28;20301;-58
2023/01/25 07:42:57;;;;;;;22.80;15.43;;;;;;;1.08;100.00;98071.78;5014642;28;20236;-62
2023/01/25 07:45:29;;;;;;;23.40;17.23;;;;;;;1.06;100.00;98067.72;5015510;28;20176;-60
2023/01/25 07:47:58;;;;;;;21.27;15.87;;;;;;;1.07;100.00;98072.72;5014423;28;20207;-60
2023/01/25 07:50:25;;;;;;;22.63;16.30;;;;;;;1.10;100.00;98071.66;5015009;28;20209;-59
2023/01/25 07:52:50;;;;;;;22.00;16.13;;;;;;;1.17;100.00;98072.75;5015313;28;20226;-61
2023/01/25 07:55:15;;;;;;;21.87;15.47;;;;;;;1.18;100.00;98069.19;5016029;28;20195;-61
2023/01/25 07:57:41;;;;;;;22.73;15.83;;;;;;;1.19;100.00;98069.06;5015920;28;20195;-61
2023/01/25 08:00:08;;;;;;;26.83;21.23;;;;;;;1.38;100.00;98063.06;5014335;28;20191;-66
2023/01/25 08:02:34;;;;;;;25.03;20.80;;;;;;;1.68;100.00;98065.47;5011644;28;20330;-63
2023/01/25 08:04:59;;;;;;;23.10;16.70;;;;;;;1.36;100.00;98069.31;5013799;28;20290;-60
2023/01/25 08:07:27;;;;;;;21.47;14.97;;;;;;;1.09;100.00;98072.59;5014165;28;20188;-61
2023/01/25 08:09:52;;;;;;;23.13;15.00;;;;;;;1.04;100.00;98079.94;5013527;28;20556;-61
2023/01/25 08:12:18;;;;;;;20.50;15.40;;;;;;;1.06;100.00;98080.63;5015154;28;20192;-61
2023/01/25 08:14:43;;;;;;;19.13;14.40;;;;;;;1.28;100.00;98077.78;5013110;28;20215;-61
2023/01/25 08:17:09;;;;;;;24.40;15.80;;;;;;;1.16;100.00;98074.50;5013551;28;20192;-62
2023/01/25 08:19:34;;;;;;;20.67;14.47;;;;;;;1.08;100.00;98070.94;5013896;28;20218;-61
2023/01/25 08:22:00;;;;;;;21.00;15.33;;;;;;;0.99;100.00;98072.59;5014810;28;20695;-59
2023/01/25 08:24:25;;;;;;;22.23;17.73;;;;;;;0.97;100.00;98071.91;5014609;28;20199;-62
2023/01/25 08:26:51;;;;;;;23.27;17.83;;;;;;;1.03;100.00;98081.69;5014072;28;20172;-61
2023/01/25 08:29:16;;;;;;;20.63;15.53;;;;;;;1.15;100.00;98077.22;5014456;28;20183;-62
2023/01/25 08:31:45;;;;;;;23.83;16.27;;;;;;;1.19;100.00;98079.38;4996629;28;20183;-62
2023/01/25 08:34:11;;;;;;;22.87;16.27;;;;;;;1.28;100.00;98079.53;5013953;28;20211;-62
2023/01/25 08:36:36;;;;;;;23.00;16.53;;;;;;;1.06;100.00;98085.78;5014545;28;20491;-60
2023/01/25 08:39:07;;;;;;;23.63;16.23;;;;;;;1.03;100.00;98070.53;5013114;28;20179;-60
2023/01/25 08:41:34;;;;;;;20.23;16.13;;;;;;;0.96;100.00;98074.59;5014038;28;20180;-61
2023/01/25 08:43:59;;;;;;;21.60;15.43;;;;;;;0.89;100.00;98070.97;5013965;28;20215;-61
2023/01/25 08:46:28;;;;;;;22.17;16.17;;;;;;;1.03;100.00;98073.13;5014536;28;20179;-61
2023/01/25 08:48:55;;;;;;;23.23;16.20;;;;;;;1.16;100.00;98068.53;5013899;28;20570;-62
2023/01/25 08:51:21;;;;;;;22.40;15.90;;;;;;;1.00;100.00;98058.75;5013786;28;20179;-62
2023/01/25 08:53:47;;;;;;;22.73;15.80;;;;;;;1.14;100.00;98060.09;5013709;28;20219;-62
2023/01/25 08:56:14;;;;;;;22.03;14.93;;;;;;;1.20;100.00;98060.38;5014038;28;20183;-61
2023/01/25 08:58:48;;;;;;;22.53;15.90;;;;;;;1.16;100.00;98053.84;5000436;28;20210;-60
2023/01/25 09:01:15;;;;;;;21.40;14.57;;;;;;;1.23;100.00;98046.34;5010909;28;20297;-61
2023/01/25 09:03:44;;;;;;;19.40;15.43;;;;;;;1.07;100.00;98051.25;5013567;28;20257;-62
2023/01/25 09:06:11;;;;;;;21.03;15.17;;;;;;;0.98;100.00;98041.75;5013328;28;20183;-62
2023/01/25 09:08:37;;;;;;;20.27;14.90;;;;;;;1.07;100.00;98041.75;5013940;28;20604;-61
2023/01/25 09:11:14;;;;;;;24.00;15.60;;;;;;;1.17;100.00;98034.81;5013633;28;20230;-62
2023/01/25 09:13:42;;;;;;;22.00;15.57;;;;;;;1.33;100.00;98031.69;5006577;28;20277;-62
2023/01/25 09:16:11;;;;;;;20.13;14.53;;;;;;;1.35;100.00;98037.50;5013403;28;20633;-61
2023/01/25 09:18:38;;;;;;;23.13;15.97;;;;;;;1.33;100.00;98036.84;5014002;28;20542;-61
2023/01/25 09:21:10;;;;;;;24.67;17.07;;;;;;;1.21;100.00;98037.94;5013675;28;20177;-63
2023/01/25 09:23:36;;;;;;;21.57;15.77;;;;;;;1.27;100.00;98049.50;5013734;28;20199;-62
2023/01/25 09:26:03;;;;;;;19.27;15.53;;;;;;;1.14;100.00;98052.34;5013693;28;20179;-62
2023/01/25 09:28:30;;;;;;;20.63;15.27;;;;;;;1.18;100.00;98044.19;5013551;28;20222;-61
2023/01/25 09:31:01;;;;;;;21.50;15.33;;;;;;;1.14;100.00;98032.50;5013540;28;20168;-62
2023/01/25 09:33:28;;;;;;;23.90;16.40;;;;;;;1.33;100.00;98038.63;5013338;28;20648;-62
2023/01/25 09:35:54;;;;;;;24.80;17.23;;;;;;;1.07;100.00;98043.50;5013337;28;20171;-62
2023/01/25 09:38:20;;;;;;;24.23;16.73;;;;;;;1.06;100.00;98031.56;5013450;28;20175;-62
2023/01/25 09:41:25;;;;;;;22.20;16.00;;;;;;;0.87;100.00;98034.13;5014003;28;20186;-63
2023/01/25 09:44:32;;;;;;;23.43;16.97;;;;;;;0.96;100.00;98031.56;5001236;28;20626;-62
2023/01/25 09:47:03;;;;;;;26.00;17.13;;;;;;;1.10;100.00;98033.75;5002299;28;20203;-62
2023/01/25 09:49:31;;;;;;;21.43;16.27;;;;;;;1.13;100.00;98035.22;5012654;28;20186;-60
2023/01/25 09:52:29;;;;;;;25.53;17.13;;;;;;;0.99;100.00;98028.72;5012713;28;20211;-61
2023/01/25 09:54:55;;;;;;;36.47;33.33;;;;;;;1.02;100.00;98033.59;5012944;28;20191;-60
2023/01/25 09:57:29;;;;;;;22.87;15.90;;;;;;;1.15;100.00;98035.91;5012918;28;20213;-62
2023/01/25 09:59:55;;;;;;;21.50;16.87;;;;;;;1.22;100.00;98037.81;5002298;28;20183;-61
2023/01/25 10:02:39;;;;;;;21.83;16.60;;;;;;;1.08;100.00;98034.81;5009983;28;20590;-61
2023/01/25 10:05:15;;;;;;;21.67;15.33;;;;;;;1.16;100.00;98038.34;4994596;28;20253;-61
2023/01/25 10:08:14;;;;;;;21.53;15.43;;;;;;;1.08;100.00;98037.38;5011919;28;20636;-62
2023/01/25 10:10:42;;;;;;;21.60;15.20;;;;;;;0.96;100.00;98028.16;4976626;28;20210;-62
2023/01/25 10:13:14;;;;;;;23.60;16.90;;;;;;;1.10;100.00;98020.84;5012268;28;20714;-61
2023/01/25 10:15:49;;;;;;;21.93;15.47;;;;;;;1.18;100.00;98030.44;5012546;28;20190;-63
2023/01/25 10:18:25;;;;;;;21.93;15.97;;;;;;;1.29;100.00;98021.75;5006955;28;20739;-61
2023/01/25 10:21:01;;;;;;;22.10;15.73;;;;;;;1.23;100.00;98023.94;5012885;28;20178;-62
2023/01/25 10:24:03;;;;;;;22.37;15.83;;;;;;;1.16;100.00;98014.31;5012133;28;20561;-60
2023/01/25 10:26:35;;;;;;;24.53;15.70;;;;;;;1.33;100.00;98020.53;4994803;28;20225;-61
2023/01/25 10:29:18;;;;;;;22.30;17.07;;;;;;;1.27;100.00;98013.34;5013746;28;20172;-62
2023/01/25 10:32:17;;;;;;;21.47;15.63;;;;;;;1.43;100.00;98016.16;5013823;28;20187;-63
2023/01/25 10:34:49;;;;;;;21.67;14.93;;;;;;;1.42;100.00;98010.19;5012660;28;20730;-62
2023/01/25 10:37:28;;;;;;;20.43;15.17;;;;;;;1.24;100.00;98001.50;5012418;28;20171;-59
2023/01/25 10:40:00;;;;;;;19.63;14.23;;;;;;;1.18;100.00;98002.06;5004469;28;20650;-60
2023/01/25 10:42:28;;;;;;;18.13;13.93;;;;;;;1.16;100.00;97997.06;5012346;28;20211;-62
2023/01/25 10:44:53;;;;;;;20.43;14.53;;;;;;;1.33;100.00;97994.72;5012996;28;20234;-60
2023/01/25 10:47:32;;;;;;;21.70;15.40;;;;;;;1.30;100.00;97988.03;5013176;28;20182;-62
2023/01/25 10:49:58;;;;;;;18.73;14.93;;;;;;;1.45;100.00;97986.63;5012804;28;20187;-60
2023/01/25 10:52:28;;;;;;;23.53;15.30;;;;;;;1.53;100.00;97985.97;5012698;28;20276;-60
2023/01/25 10:55:14;;;;;;;18.97;14.23;;;;;;;1.20;100.00;97982.09;5012209;28;20230;-62
2023/01/25 10:57:51;;;;;;;20.33;14.27;;;;;;;1.25;100.00;97977.31;4998672;28;20203;-62
2023/01/25 11:00:33;;;;;;;19.50;14.20;;;;;;;1.12;100.00;97982.75;5011879;28;20261;-62
2023/01/25 11:02:59;;;;;;;20.60;14.73;;;;;;;1.03;100.00;97970.69;5008051;28;20795;-63
2023/01/25 11:05:40;;;;;;;19.03;14.93;;;;;;;1.30;100.00;97982.06;5012100;28;20198;-64
2023/01/25 11:08:31;;;;;;;19.30;14.87;;;;;;;1.17;100.00;97974.63;4995642;28;20197;-62
2023/01/25 11:10:58;;;;;;;20.27;13.97;;;;;;;1.13;100.00;97974.06;5011962;28;20184;-63
2023/01/25 11:13:32;;;;;;;20.40;15.30;;;;;;;1.24;100.00;97975.69;5011171;28;20215;-62
2023/01/25 11:16:03;;;;;;;20.50;14.30;;;;;;;1.18;100.00;97973.66;5012113;28;20926;-63
2023/01/25 11:18:33;;;;;;;22.23;15.90;;;;;;;1.46;100.00;97972.78;5012282;28;20179;-62
2023/01/25 11:21:34;;;;;;;20.47;14.90;;;;;;;1.33;100.00;97968.88;5012402;28;20579;-61
2023/01/25 11:24:20;;;;;;;21.13;15.03;;;;;;;1.11;100.00;97965.66;5012597;28;21796;-61
2023/01/25 11:26:45;;;;;;;18.07;14.43;;;;;;;1.16;100.00;97965.25;5012210;28;20779;-62
2023/01/25 11:29:19;;;;;;;25.83;16.37;;;;;;;1.04;100.00;97966.34;5011522;28;20274;-61